createdAt,value
2022-09-30T00:04:40.889Z,97.63
2022-09-30T00:09:43.052Z,97.50
2022-09-30T00:14:44.771Z,97.42
2022-09-30T00:19:48.217Z,97.33
2022-09-30T00:24:50.537Z,97.91
2022-09-30T00:29:52.584Z,97.68
2022-09-30T00:34:55.769Z,97.81
2022-09-30T00:39:57.803Z,97.29
2022-09-30T00:45:05.838Z,97.34
2022-09-30T00:50:21.483Z,97.62
2022-09-30T00:55:33.741Z,97.67
2022-09-30T01:00:36.216Z,97.79
2022-09-30T01:05:39.749Z,97.74
2022-09-30T01:10:41.592Z,97.51
2022-09-30T01:16:16.648Z,97.56
2022-09-30T01:21:55.010Z,97.76
2022-09-30T01:27:16.576Z,97.55
2022-09-30T01:32:28.694Z,97.93
2022-09-30T01:37:42.466Z,97.81
2022-09-30T01:42:51.727Z,97.91
2022-09-30T01:48:02.116Z,97.80
2022-09-30T01:53:11.335Z,98.62
2022-09-30T01:58:21.388Z,98.36
2022-09-30T02:03:31.232Z,98.07
2022-09-30T02:08:40.253Z,97.93
2022-09-30T02:13:48.421Z,97.93
2022-09-30T02:18:54.221Z,98.29
2022-09-30T02:24:02.897Z,97.73
2022-09-30T02:29:08.530Z,98.24
2022-09-30T02:34:15.070Z,98.06
2022-09-30T02:39:36.907Z,97.77
2022-09-30T02:44:39.143Z,98.42
2022-09-30T02:49:48.032Z,98.51
2022-09-30T02:55:00.288Z,97.34
2022-09-30T03:00:03.578Z,97.81
2022-09-30T03:05:09.303Z,96.91
2022-09-30T03:10:14.940Z,97.10
2022-09-30T03:15:27.698Z,97.10
2022-09-30T03:20:46.527Z,97.41
2022-09-30T03:25:57.106Z,97.18
2022-09-30T03:31:07.185Z,97.73
2022-09-30T03:36:15.545Z,97.52
2022-09-30T03:41:24.622Z,97.53
2022-09-30T03:46:30.994Z,97.40
2022-09-30T03:51:37.135Z,97.34
2022-09-30T03:56:40.811Z,96.94
2022-09-30T04:01:42.773Z,96.88
2022-09-30T04:06:46.574Z,97.07
2022-09-30T04:11:48.541Z,97.09
2022-09-30T04:16:53.784Z,97.26
2022-09-30T04:21:57.269Z,97.29
2022-09-30T04:26:59.500Z,97.61
2022-09-30T04:32:02.077Z,97.14
2022-09-30T04:37:10.092Z,97.25
2022-09-30T04:42:13.043Z,97.85
2022-09-30T04:47:14.992Z,97.77
2022-09-30T04:52:18.370Z,97.25
2022-09-30T04:57:20.711Z,97.25
2022-09-30T05:02:22.465Z,97.92
2022-09-30T05:07:28.060Z,97.43
2022-09-30T05:12:30.338Z,97.56
2022-09-30T05:17:32.713Z,97.89
2022-09-30T05:22:36.098Z,97.96
2022-09-30T05:27:38.271Z,97.96
2022-09-30T05:32:40.287Z,97.77
2022-09-30T05:37:43.723Z,98.00
2022-09-30T05:42:45.379Z,97.73
2022-09-30T05:47:51.877Z,97.49
2022-09-30T05:52:55.023Z,96.96
2022-09-30T05:57:57.143Z,96.76
2022-09-30T06:02:59.172Z,96.60
2022-09-30T06:08:03.377Z,96.75
2022-09-30T06:13:05.768Z,96.75
2022-09-30T06:18:08.766Z,96.96
2022-09-30T06:23:12.004Z,96.91
2022-09-30T06:28:13.906Z,96.80
2022-09-30T06:33:16.520Z,96.49
2022-09-30T06:38:19.915Z,96.68
2022-09-30T06:43:22.122Z,96.60
2022-09-30T06:48:35.397Z,96.81
2022-09-30T06:53:40.465Z,96.55
2022-09-30T06:58:42.722Z,96.91
2022-09-30T07:03:49.351Z,96.70
2022-09-30T07:08:54.754Z,96.71
2022-09-30T07:13:56.941Z,96.42
2022-09-30T07:18:59.078Z,96.67
2022-09-30T07:24:03.324Z,96.47
2022-09-30T07:29:05.444Z,96.26
2022-09-30T07:34:09.350Z,95.69
2022-09-30T07:39:12.675Z,95.54
2022-09-30T07:44:15.124Z,94.46
2022-09-30T07:49:18.127Z,93.88
2022-09-30T07:54:24.827Z,93.97
2022-09-30T07:59:28.262Z,92.71
2022-09-30T08:04:30.146Z,91.52
2022-09-30T08:09:33.580Z,91.60
2022-09-30T08:14:36.018Z,90.05
2022-09-30T08:19:37.724Z,88.64
2022-09-30T08:24:41.376Z,86.82
2022-09-30T08:29:54.527Z,85.54
2022-09-30T08:34:57.669Z,84.84
2022-09-30T08:40:01.280Z,82.82
2022-09-30T08:45:09.374Z,81.18
2022-09-30T08:50:18.702Z,80.94
2022-09-30T08:55:24.767Z,78.41
2022-09-30T09:00:26.661Z,76.20
2022-09-30T09:05:38.656Z,74.92
2022-09-30T09:10:46.064Z,72.93
2022-09-30T09:16:01.851Z,71.46
2022-09-30T09:21:16.091Z,70.89
2022-09-30T09:26:20.149Z,69.86
2022-09-30T09:31:22.566Z,67.73
2022-09-30T09:36:39.376Z,66.74
2022-09-30T09:41:51.519Z,50.86
2022-09-30T09:47:00.302Z,44.64
2022-09-30T09:52:28.818Z,43.58
2022-09-30T09:57:32.473Z,42.99
2022-09-30T10:02:34.864Z,38.19
2022-09-30T10:07:36.571Z,35.87
2022-09-30T10:12:41.722Z,37.74
2022-09-30T10:17:44.030Z,37.16
2022-09-30T10:22:47.922Z,34.91
2022-09-30T10:27:59.023Z,30.73
2022-09-30T10:33:02.358Z,30.30
2022-09-30T10:38:03.993Z,30.35
2022-09-30T10:43:19.838Z,31.31
2022-09-30T10:48:24.271Z,33.14
2022-09-30T10:53:27.791Z,33.79
2022-09-30T10:58:46.109Z,35.92
2022-09-30T11:03:57.224Z,36.67
2022-09-30T11:09:04.464Z,41.31
2022-09-30T11:14:20.605Z,45.53
2022-09-30T11:19:28.455Z,46.98
2022-09-30T11:24:38.845Z,49.74
2022-09-30T11:30:01.539Z,49.02
2022-09-30T11:35:17.143Z,49.23
2022-09-30T11:40:37.583Z,50.79
2022-09-30T11:45:55.083Z,51.00
2022-09-30T11:51:09.134Z,49.85
2022-09-30T11:56:25.470Z,48.78
2022-09-30T12:01:33.752Z,48.66
2022-09-30T12:06:40.618Z,47.63
2022-09-30T12:11:49.646Z,45.77
2022-09-30T12:16:53.766Z,47.10
2022-09-30T12:22:01.278Z,44.23
2022-09-30T12:27:13.079Z,44.80
2022-09-30T12:32:43.022Z,46.61
2022-09-30T12:38:06.526Z,44.95
2022-09-30T12:43:32.206Z,43.19
2022-09-30T12:48:39.115Z,42.62
2022-09-30T12:53:41.553Z,41.41
2022-09-30T12:58:48.137Z,42.61
2022-09-30T13:03:53.301Z,43.80
2022-09-30T13:09:19.884Z,43.16
2022-09-30T13:14:32.402Z,40.52
2022-09-30T13:19:36.916Z,43.19
2022-09-30T13:25:11.692Z,41.79
2022-09-30T13:30:34.736Z,40.30
2022-09-30T13:35:50.969Z,43.28
2022-09-30T13:41:02.215Z,40.49
2022-09-30T13:46:10.554Z,41.81
2022-09-30T13:51:16.621Z,41.98
2022-09-30T13:56:21.690Z,41.80
2022-09-30T14:01:36.930Z,44.31
2022-09-30T14:06:55.906Z,45.79
2022-09-30T14:12:10.424Z,46.03
2022-09-30T14:17:30.312Z,47.41
2022-09-30T14:22:36.689Z,47.23
2022-09-30T14:27:59.334Z,47.60
2022-09-30T14:33:09.278Z,48.36
2022-09-30T14:38:20.603Z,46.68
2022-09-30T14:43:25.692Z,46.13
2022-09-30T14:48:31.365Z,46.65
2022-09-30T14:53:36.627Z,43.94
2022-09-30T14:58:40.050Z,45.70
2022-09-30T15:03:45.161Z,45.02
2022-09-30T15:08:49.899Z,45.61
2022-09-30T15:13:59.836Z,45.51
2022-09-30T15:19:01.560Z,47.00
2022-09-30T15:24:04.922Z,48.12
2022-09-30T15:29:06.568Z,49.05
2022-09-30T15:34:20.418Z,50.29
2022-09-30T15:39:29.650Z,51.69
2022-09-30T15:44:38.988Z,51.95
2022-09-30T15:49:48.245Z,52.53
2022-09-30T15:54:51.405Z,53.92
2022-09-30T15:59:58.390Z,56.06
2022-09-30T16:05:01.511Z,57.27
2022-09-30T16:10:05.189Z,58.51
2022-09-30T16:15:10.773Z,60.68
2022-09-30T16:20:22.632Z,62.83
2022-09-30T16:25:27.889Z,64.42
2022-09-30T16:30:30.741Z,66.03
2022-09-30T16:35:32.692Z,68.77
2022-09-30T16:40:35.938Z,70.24
2022-09-30T16:45:38.922Z,71.60
2022-09-30T16:50:46.702Z,73.50
2022-09-30T16:55:49.945Z,74.84
2022-09-30T17:00:52.747Z,75.51
2022-09-30T17:05:54.657Z,76.16
2022-09-30T17:10:57.754Z,77.17
2022-09-30T17:16:00.361Z,78.11
2022-09-30T17:21:02.804Z,79.70
2022-09-30T17:26:06.809Z,80.89
2022-09-30T17:31:09.504Z,81.50
2022-09-30T17:36:13.147Z,82.76
2022-09-30T17:41:16.434Z,83.84
2022-09-30T17:46:19.432Z,83.79
2022-09-30T17:51:21.166Z,84.41
2022-09-30T17:56:24.303Z,85.25
2022-09-30T18:01:26.019Z,85.59
2022-09-30T18:06:28.477Z,86.31
2022-09-30T18:11:31.790Z,86.48
2022-09-30T18:16:34.282Z,87.01
2022-09-30T18:21:37.204Z,87.73
2022-09-30T18:26:40.273Z,88.21
2022-09-30T18:31:42.177Z,88.12
2022-09-30T18:36:43.922Z,88.87
2022-09-30T18:41:47.524Z,89.70
2022-09-30T18:46:49.564Z,89.72
2022-09-30T18:51:51.628Z,89.83
2022-09-30T18:56:55.227Z,90.52
2022-09-30T19:01:57.598Z,90.53
2022-09-30T19:06:59.969Z,90.62
2022-09-30T19:12:03.910Z,91.40
2022-09-30T19:17:06.362Z,90.97
2022-09-30T19:22:08.278Z,91.17
2022-09-30T19:27:11.679Z,91.34
2022-09-30T19:32:13.572Z,91.16
2022-09-30T19:37:26.050Z,91.24
2022-09-30T19:42:30.323Z,91.44
2022-09-30T19:47:34.484Z,91.56
2022-09-30T19:52:40.649Z,91.90
2022-09-30T19:57:51.490Z,92.00
2022-09-30T20:02:53.187Z,92.09
2022-09-30T20:07:54.898Z,91.74
2022-09-30T20:12:57.966Z,92.26
2022-09-30T20:18:00.316Z,92.12
2022-09-30T20:23:02.596Z,92.51
2022-09-30T20:28:06.161Z,92.62
2022-09-30T20:33:08.030Z,92.95
2022-09-30T20:38:13.012Z,93.41
2022-09-30T20:43:16.044Z,93.42
2022-09-30T20:48:17.785Z,92.01
2022-09-30T20:53:19.448Z,88.56
2022-09-30T20:58:22.566Z,87.85
2022-09-30T21:03:24.276Z,86.58
2022-09-30T21:08:26.056Z,85.83
2022-09-30T21:13:29.227Z,85.73
2022-09-30T21:18:31.692Z,85.49
2022-09-30T21:23:34.329Z,85.41
2022-09-30T21:28:37.937Z,85.53
2022-09-30T21:33:39.571Z,85.82
2022-09-30T21:38:41.310Z,85.66
2022-09-30T21:43:44.592Z,85.89
2022-09-30T21:48:46.289Z,85.87
2022-09-30T21:53:47.961Z,85.90
2022-09-30T21:58:51.042Z,86.43
2022-09-30T22:03:52.754Z,86.63
2022-09-30T22:08:54.490Z,86.25
2022-09-30T22:13:59.158Z,86.36
2022-09-30T22:19:03.741Z,87.00
2022-09-30T22:24:06.707Z,86.63
2022-09-30T22:29:11.172Z,86.98
2022-09-30T22:34:14.303Z,87.12
2022-09-30T22:39:16.001Z,87.47
2022-09-30T22:44:19.231Z,88.17
2022-09-30T22:49:21.893Z,88.49
2022-09-30T22:54:25.375Z,88.13
2022-09-30T22:59:29.971Z,88.36
2022-09-30T23:04:31.822Z,88.30
2022-09-30T23:09:33.697Z,89.16
2022-09-30T23:14:36.777Z,89.55
2022-09-30T23:19:38.718Z,89.60
2022-09-30T23:24:40.510Z,89.93
2022-09-30T23:29:43.545Z,90.14
2022-09-30T23:34:45.194Z,90.88
2022-09-30T23:39:46.856Z,91.02
2022-09-30T23:44:49.832Z,90.49
2022-09-30T23:49:51.501Z,90.89
2022-09-30T23:54:53.666Z,91.62
2022-09-30T23:59:56.850Z,91.42
